createdAt,value
2019-06-10T00:01:08.785Z,77.07
2019-06-10T00:03:44.778Z,76.16
2019-06-10T00:06:20.966Z,76.70
2019-06-10T00:08:55.974Z,79.88
2019-06-10T00:11:31.936Z,78.85
2019-06-10T00:14:07.365Z,78.69
2019-06-10T00:16:42.824Z,80.83
2019-06-10T00:19:18.342Z,77.92
2019-06-10T00:21:52.287Z,80.25
2019-06-10T00:24:26.807Z,79.70
2019-06-10T00:27:02.871Z,78.55
2019-06-10T00:32:31.890Z,78.91
2019-06-10T00:35:07.678Z,76.53
2019-06-10T00:37:41.895Z,77.29
2019-06-10T00:40:16.140Z,76.57
2019-06-10T00:42:52.019Z,77.67
2019-06-10T00:45:28.000Z,77.46
2019-06-10T00:48:12.369Z,76.08
2019-06-10T00:50:43.097Z,74.87
2019-06-10T00:53:20.952Z,76.71
2019-06-10T00:55:54.640Z,73.25
2019-06-10T00:58:32.012Z,74.41
2019-06-10T01:01:07.868Z,74.69
2019-06-10T01:03:43.705Z,74.47
2019-06-10T01:06:21.389Z,70.52
2019-06-10T01:08:56.299Z,71.02
2019-06-10T01:11:31.178Z,71.69
2019-06-10T01:14:07.328Z,71.69
2019-06-10T01:16:41.150Z,70.85
2019-06-10T01:19:15.775Z,69.07
2019-06-10T01:22:11.074Z,70.66
2019-06-10T01:24:46.023Z,72.96
2019-06-10T01:27:21.247Z,71.95
2019-06-10T01:29:54.994Z,68.81
2019-06-10T01:32:31.011Z,69.53
2019-06-10T01:35:04.829Z,72.59
2019-06-10T01:37:41.422Z,68.28
2019-06-10T01:40:16.823Z,68.95
2019-06-10T01:42:51.679Z,71.65
2019-06-10T01:45:25.102Z,72.06
2019-06-10T01:47:58.734Z,71.00
2019-06-10T01:50:32.509Z,73.60
2019-06-10T01:53:07.296Z,73.70
2019-06-10T01:58:20.970Z,71.52
2019-06-10T02:00:54.479Z,69.88
2019-06-10T02:03:31.351Z,69.06
2019-06-10T02:06:04.581Z,67.76
2019-06-10T02:08:41.827Z,65.68
2019-06-10T02:11:17.265Z,66.94
2019-06-10T02:13:51.555Z,69.79
2019-06-10T02:16:25.256Z,69.79
2019-06-10T02:19:03.408Z,68.60
2019-06-10T02:21:35.303Z,61.00
2019-06-10T02:24:12.871Z,64.21
2019-06-10T02:26:46.608Z,64.92
2019-06-10T02:29:23.515Z,66.02
2019-06-10T02:31:58.437Z,62.16
2019-06-10T02:34:39.082Z,66.57
2019-06-10T02:37:08.849Z,60.64
2019-06-10T02:39:44.121Z,61.61
2019-06-10T02:42:21.632Z,62.39
2019-06-10T02:44:54.304Z,62.90
2019-06-10T02:47:33.560Z,61.50
2019-06-10T02:50:08.283Z,67.47
2019-06-10T02:52:44.053Z,66.47
2019-06-10T02:55:16.261Z,64.61
2019-06-10T03:00:37.138Z,65.93
2019-06-10T03:03:03.916Z,62.12
2019-06-10T03:05:40.862Z,62.20
2019-06-10T03:08:13.756Z,59.20
2019-06-10T03:10:54.422Z,63.11
2019-06-10T03:13:25.755Z,64.59
2019-06-10T03:16:17.806Z,65.24
2019-06-10T03:18:54.599Z,62.80
2019-06-10T03:21:28.557Z,63.27
2019-06-10T03:24:03.426Z,59.96
2019-06-10T03:26:42.816Z,62.43
2019-06-10T03:29:37.665Z,62.43
2019-06-10T03:32:14.517Z,60.76
2019-06-10T03:34:48.060Z,60.90
2019-06-10T03:37:23.271Z,61.02
2019-06-10T03:39:57.443Z,64.09
2019-06-10T03:42:32.482Z,60.04
2019-06-10T03:45:08.427Z,59.41
2019-06-10T03:47:42.903Z,58.43
2019-06-10T03:50:17.173Z,55.84
2019-06-10T03:52:52.501Z,57.87
2019-06-10T03:55:29.064Z,56.13
2019-06-10T03:58:04.385Z,59.03
2019-06-10T04:00:39.328Z,60.57
2019-06-10T04:03:13.139Z,63.10
2019-06-10T04:05:47.649Z,62.32
2019-06-10T04:08:22.409Z,61.64
2019-06-10T04:10:58.677Z,61.94
2019-06-10T04:13:34.066Z,61.36
2019-06-10T04:16:09.294Z,60.47
2019-06-10T04:18:45.514Z,55.43
2019-06-10T04:21:22.439Z,62.22
2019-06-10T04:23:55.343Z,65.42
2019-06-10T04:26:29.678Z,61.26
2019-06-10T04:29:03.461Z,53.86
2019-06-10T04:31:42.294Z,59.24
2019-06-10T04:34:15.646Z,59.57
2019-06-10T04:36:52.599Z,55.88
2019-06-10T04:39:29.165Z,54.32
2019-06-10T04:42:02.732Z,55.01
2019-06-10T04:44:36.590Z,54.92
2019-06-10T04:47:11.948Z,53.85
2019-06-10T04:49:45.248Z,47.95
2019-06-10T04:52:21.247Z,47.44
2019-06-10T04:54:57.158Z,49.57
2019-06-10T04:57:32.769Z,55.49
2019-06-10T05:00:11.359Z,58.97
2019-06-10T05:02:43.050Z,59.05
2019-06-10T05:05:19.329Z,60.50
2019-06-10T05:07:53.233Z,56.79
2019-06-10T05:10:29.832Z,56.03
2019-06-10T05:13:04.480Z,57.01
2019-06-10T05:15:37.972Z,59.83
2019-06-10T05:18:13.135Z,53.93
2019-06-10T05:20:54.912Z,60.29
2019-06-10T05:23:24.871Z,59.15
2019-06-10T05:25:58.427Z,53.40
2019-06-10T05:28:34.312Z,50.86
2019-06-10T05:31:09.618Z,55.25
2019-06-10T05:33:45.208Z,58.90
2019-06-10T05:40:56.802Z,56.08
2019-06-10T05:43:32.928Z,56.13
2019-06-10T05:46:05.571Z,56.29
2019-06-10T05:48:39.469Z,53.13
2019-06-10T05:51:14.579Z,50.89
2019-06-10T05:53:48.215Z,49.78
2019-06-10T05:56:23.857Z,51.91
2019-06-10T05:59:02.259Z,50.40
2019-06-10T06:01:37.911Z,51.42
2019-06-10T06:04:12.663Z,52.79
2019-06-10T06:06:46.174Z,54.01
2019-06-10T06:09:22.002Z,52.43
2019-06-10T06:11:55.832Z,61.15
2019-06-10T06:14:29.880Z,62.36
2019-06-10T06:17:03.573Z,63.18
2019-06-10T06:19:38.882Z,63.06
2019-06-10T06:22:13.760Z,65.06
2019-06-10T06:24:49.044Z,65.44
2019-06-10T06:27:24.360Z,67.20
2019-06-10T06:29:58.133Z,66.68
2019-06-10T06:32:36.385Z,66.79
2019-06-10T06:35:12.650Z,65.34
2019-06-10T06:37:45.598Z,67.63
2019-06-10T06:40:22.961Z,64.95
2019-06-10T06:42:57.988Z,65.72
2019-06-10T06:45:34.041Z,67.05
2019-06-10T06:48:08.229Z,66.44
2019-06-10T06:51:00.310Z,65.15
2019-06-10T06:53:30.205Z,62.95
2019-06-10T06:55:56.442Z,65.28
2019-06-10T06:58:33.229Z,63.24
2019-06-10T07:01:10.664Z,62.86
2019-06-10T07:03:45.132Z,66.25
2019-06-10T07:06:18.977Z,64.14
2019-06-10T07:09:04.218Z,61.91
2019-06-10T07:11:33.941Z,61.86
2019-06-10T07:14:12.862Z,63.87
2019-06-10T07:16:46.526Z,64.17
2019-06-10T07:19:22.635Z,64.08
2019-06-10T07:22:08.786Z,64.24
2019-06-10T07:24:34.239Z,63.54
2019-06-10T07:27:08.875Z,65.69
2019-06-10T07:29:47.019Z,64.42
2019-06-10T07:32:22.532Z,59.68
2019-06-10T07:34:56.242Z,62.08
2019-06-10T07:37:32.805Z,64.52
2019-06-10T07:40:09.276Z,65.00
2019-06-10T07:42:44.115Z,62.91
2019-06-10T07:45:19.415Z,64.70
2019-06-10T07:47:53.959Z,65.63
2019-06-10T07:50:29.273Z,66.69
2019-06-10T07:53:03.293Z,67.42
2019-06-10T07:55:37.879Z,67.51
2019-06-10T07:58:14.252Z,66.02
2019-06-10T08:00:48.624Z,65.59
2019-06-10T08:03:22.537Z,68.52
2019-06-10T08:05:57.891Z,66.05
2019-06-10T08:08:33.190Z,68.36
2019-06-10T08:11:06.860Z,69.10
2019-06-10T08:13:42.915Z,65.11
2019-06-10T08:16:15.544Z,66.78
2019-06-10T08:19:16.152Z,65.39
2019-06-10T08:21:25.983Z,65.80
2019-06-10T08:24:03.306Z,64.28
2019-06-10T08:26:37.266Z,62.31
2019-06-10T08:29:13.008Z,61.85
2019-06-10T08:31:49.891Z,60.19
2019-06-10T08:34:25.094Z,60.87
2019-06-10T08:37:13.611Z,62.60
2019-06-10T08:39:58.819Z,64.20
2019-06-10T08:42:39.111Z,65.79
2019-06-10T08:45:03.975Z,64.44
2019-06-10T08:47:39.111Z,66.74
2019-06-10T08:50:14.156Z,65.46
2019-06-10T08:53:03.349Z,67.44
2019-06-10T08:55:23.465Z,66.42
2019-06-10T08:58:02.653Z,66.40
2019-06-10T09:00:53.280Z,66.58
2019-06-10T09:06:50.670Z,68.90
2019-06-10T09:09:12.719Z,68.93
2019-06-10T09:11:47.432Z,69.91
2019-06-10T09:14:23.255Z,69.52
2019-06-10T09:16:56.871Z,70.01
2019-06-10T09:19:33.273Z,69.02
2019-06-10T09:22:07.215Z,67.20
2019-06-10T09:24:48.723Z,67.92
2019-06-10T09:27:24.436Z,67.82
2019-06-10T09:29:57.348Z,69.56
2019-06-10T09:32:33.388Z,69.13
2019-06-10T09:35:08.888Z,67.68
2019-06-10T09:37:48.421Z,69.97
2019-06-10T09:40:19.727Z,70.44
2019-06-10T09:42:55.205Z,70.21
2019-06-10T09:45:33.117Z,69.74
2019-06-10T09:48:06.276Z,70.39
2019-06-10T09:50:50.806Z,71.39
2019-06-10T09:53:32.794Z,72.55
2019-06-10T09:55:56.727Z,71.61
2019-06-10T09:58:32.984Z,71.08
2019-06-10T10:01:07.032Z,72.16
2019-06-10T10:03:41.842Z,72.46
2019-06-10T10:06:17.260Z,68.42
2019-06-10T10:08:56.533Z,71.37
2019-06-10T10:11:28.508Z,72.77
2019-06-10T10:14:05.267Z,73.41
2019-06-10T10:16:35.699Z,73.26
2019-06-10T10:19:13.058Z,69.33
2019-06-10T10:21:50.182Z,68.17
2019-06-10T10:24:22.984Z,68.74
2019-06-10T10:26:58.044Z,69.82
2019-06-10T10:29:32.841Z,68.67
2019-06-10T10:32:07.022Z,66.66
2019-06-10T10:34:43.757Z,69.93
2019-06-10T10:37:16.712Z,70.62
2019-06-10T10:40:12.158Z,69.26
2019-06-10T10:42:52.213Z,69.21
2019-06-10T10:45:22.813Z,70.48
2019-06-10T10:47:58.012Z,69.72
2019-06-10T10:50:33.962Z,71.93
2019-06-10T10:53:08.009Z,70.12
2019-06-10T10:55:43.757Z,71.37
2019-06-10T10:58:19.365Z,71.73
2019-06-10T11:00:56.763Z,72.66
2019-06-10T11:03:29.836Z,72.92
2019-06-10T11:06:03.589Z,73.05
2019-06-10T11:08:37.421Z,72.30
2019-06-10T11:11:13.895Z,72.41
2019-06-10T11:13:53.326Z,72.00
2019-06-10T11:16:26.019Z,72.69
2019-06-10T11:19:02.541Z,72.42
2019-06-10T11:21:36.554Z,72.39
2019-06-10T11:24:10.064Z,72.99
2019-06-10T11:29:42.120Z,74.79
2019-06-10T11:32:18.893Z,75.08
2019-06-10T11:34:56.939Z,76.01
2019-06-10T11:37:50.972Z,74.90
2019-06-10T11:40:28.179Z,74.97
2019-06-10T11:43:03.298Z,76.97
2019-06-10T11:45:44.208Z,76.04
2019-06-10T11:48:14.461Z,76.26
2019-06-10T11:50:49.199Z,75.92
2019-06-10T11:53:28.704Z,77.35
2019-06-10T11:56:02.758Z,77.70
2019-06-10T11:58:36.541Z,78.85
2019-06-10T12:01:15.264Z,78.77
2019-06-10T12:03:50.488Z,79.22
2019-06-10T12:06:25.831Z,78.12
2019-06-10T12:09:02.778Z,78.18
2019-06-10T12:11:35.710Z,79.27
2019-06-10T12:14:13.111Z,78.58
2019-06-10T12:19:28.402Z,78.84
2019-06-10T12:22:07.334Z,78.92
2019-06-10T12:24:43.166Z,78.66
2019-06-10T12:27:23.794Z,79.66
2019-06-10T12:30:04.930Z,79.87
2019-06-10T12:32:38.977Z,79.66
2019-06-10T12:35:15.360Z,80.87
2019-06-10T12:37:55.891Z,81.07
2019-06-10T12:40:27.899Z,81.13
2019-06-10T12:43:05.065Z,81.25
2019-06-10T12:45:38.776Z,81.37
2019-06-10T12:48:14.214Z,80.90
2019-06-10T12:50:49.782Z,81.45
2019-06-10T12:53:23.776Z,80.73
2019-06-10T12:55:59.243Z,81.69
2019-06-10T12:58:43.842Z,83.33
2019-06-10T13:01:17.115Z,83.28
2019-06-10T13:03:53.608Z,83.15
2019-06-10T13:06:29.429Z,83.15
2019-06-10T13:09:08.100Z,83.25
2019-06-10T13:11:43.311Z,82.66
2019-06-10T13:14:18.600Z,81.06
2019-06-10T13:16:58.590Z,80.94
2019-06-10T13:19:34.509Z,80.60
2019-06-10T13:22:08.920Z,82.80
2019-06-10T13:24:44.603Z,82.64
2019-06-10T13:27:18.802Z,81.17
2019-06-10T13:29:53.819Z,81.42
2019-06-10T13:32:28.270Z,82.14
2019-06-10T13:35:04.713Z,82.48
2019-06-10T13:37:42.714Z,82.13
2019-06-10T13:40:16.976Z,82.61
2019-06-10T13:42:54.719Z,83.08
2019-06-10T13:45:28.198Z,83.36
2019-06-10T13:48:06.084Z,83.56
2019-06-10T13:50:42.223Z,83.54
2019-06-10T13:53:14.568Z,84.27
2019-06-10T13:55:48.225Z,84.28
2019-06-10T13:58:22.979Z,83.82
2019-06-10T14:00:56.829Z,84.11
2019-06-10T14:03:32.734Z,83.73
2019-06-10T14:06:28.446Z,84.76
2019-06-10T14:08:45.579Z,84.10
2019-06-10T14:11:21.263Z,83.52
2019-06-10T14:13:56.247Z,84.38
2019-06-10T14:16:33.173Z,84.63
2019-06-10T14:19:09.183Z,85.00
2019-06-10T14:21:42.964Z,85.16
2019-06-10T14:24:17.711Z,86.21
2019-06-10T14:26:53.165Z,86.71
2019-06-10T14:29:32.228Z,86.87
2019-06-10T14:32:09.378Z,86.51
2019-06-10T14:34:43.650Z,86.53
2019-06-10T14:37:32.267Z,85.93
2019-06-10T14:39:54.390Z,86.94
2019-06-10T14:42:29.486Z,87.79
2019-06-10T14:45:04.478Z,87.55
2019-06-10T14:47:39.605Z,87.91
2019-06-10T14:50:17.405Z,88.12
2019-06-10T14:52:53.052Z,86.82
2019-06-10T14:55:28.132Z,87.38
2019-06-10T14:58:03.225Z,87.58
2019-06-10T15:00:37.280Z,88.31
2019-06-10T15:03:12.307Z,86.96
2019-06-10T15:05:52.935Z,87.85
2019-06-10T15:08:28.048Z,88.21
2019-06-10T15:11:03.228Z,88.58
2019-06-10T15:13:37.009Z,89.51
2019-06-10T15:16:12.254Z,89.68
2019-06-10T15:18:47.453Z,88.65
2019-06-10T15:21:22.998Z,89.09
2019-06-10T15:23:59.506Z,89.91
2019-06-10T15:26:34.622Z,90.28
2019-06-10T15:29:11.170Z,89.92
2019-06-10T15:31:45.160Z,88.95
2019-06-10T15:34:19.890Z,89.71
2019-06-10T15:36:54.897Z,91.06
2019-06-10T15:39:30.085Z,90.45
2019-06-10T15:42:03.884Z,91.75
2019-06-10T15:44:49.668Z,90.81
2019-06-10T15:47:18.817Z,90.36
2019-06-10T15:49:52.508Z,90.49
2019-06-10T15:52:27.580Z,91.12
2019-06-10T15:55:04.139Z,91.82
2019-06-10T15:57:43.201Z,91.10
2019-06-10T16:00:21.536Z,90.17
2019-06-10T16:02:52.913Z,91.26
2019-06-10T16:05:26.733Z,91.56
2019-06-10T16:08:02.926Z,91.00
2019-06-10T16:10:38.110Z,92.41
2019-06-10T16:13:12.855Z,92.22
2019-06-10T16:15:46.741Z,92.38
2019-06-10T16:18:26.730Z,92.70
2019-06-10T16:20:57.971Z,93.21
2019-06-10T16:23:34.178Z,92.46
2019-06-10T16:26:09.532Z,93.12
2019-06-10T16:28:43.705Z,93.30
2019-06-10T16:31:21.197Z,93.52
2019-06-10T16:33:55.713Z,92.36
2019-06-10T16:36:32.005Z,93.16
2019-06-10T16:39:06.124Z,94.26
2019-06-10T16:41:39.941Z,93.21
2019-06-10T16:44:15.808Z,94.51
2019-06-10T16:46:49.694Z,93.22
2019-06-10T16:49:23.732Z,93.19
2019-06-10T16:51:57.478Z,92.70
2019-06-10T16:54:32.946Z,92.98
2019-06-10T16:57:08.259Z,93.39
2019-06-10T16:59:42.922Z,93.62
2019-06-10T17:02:17.176Z,93.74
2019-06-10T17:04:52.652Z,93.86
2019-06-10T17:07:29.056Z,93.27
2019-06-10T17:10:04.424Z,93.17
2019-06-10T17:12:42.661Z,93.58
2019-06-10T17:15:19.047Z,94.37
2019-06-10T17:17:53.199Z,95.22
2019-06-10T17:20:27.979Z,93.41
2019-06-10T17:23:04.072Z,94.82
2019-06-10T17:25:37.973Z,94.43
2019-06-10T17:28:18.289Z,95.21
2019-06-10T17:30:48.289Z,93.96
2019-06-10T17:33:22.938Z,93.53
2019-06-10T17:35:58.941Z,94.41
2019-06-10T17:38:34.737Z,94.56
2019-06-10T17:41:10.077Z,93.57
2019-06-10T17:43:44.127Z,94.34
2019-06-10T17:46:19.537Z,92.81
2019-06-10T17:48:54.810Z,92.91
2019-06-10T17:51:35.046Z,92.88
2019-06-10T17:54:09.412Z,93.11
2019-06-10T17:56:43.381Z,94.16
2019-06-10T17:59:18.732Z,93.45
2019-06-10T18:01:54.466Z,92.99
2019-06-10T18:04:29.256Z,92.06
2019-06-10T18:07:04.635Z,92.41
2019-06-10T18:09:39.598Z,92.55
2019-06-10T18:12:13.418Z,92.25
2019-06-10T18:14:48.399Z,92.02
2019-06-10T18:17:23.821Z,92.20
2019-06-10T18:19:57.446Z,92.28
2019-06-10T18:22:34.114Z,91.72
2019-06-10T18:25:08.490Z,92.37
2019-06-10T18:27:43.560Z,92.82
2019-06-10T18:30:17.584Z,92.94
2019-06-10T18:32:52.554Z,92.42
2019-06-10T18:35:27.831Z,92.04
2019-06-10T18:38:03.482Z,92.12
2019-06-10T18:40:37.541Z,92.27
2019-06-10T18:43:12.850Z,93.21
2019-06-10T18:45:47.778Z,94.01
2019-06-10T18:48:23.096Z,93.31
2019-06-10T18:50:58.468Z,93.76
2019-06-10T18:53:36.309Z,93.64
2019-06-10T18:56:12.651Z,93.35
2019-06-10T18:58:47.041Z,93.56
2019-06-10T19:01:22.695Z,93.25
2019-06-10T19:03:56.832Z,93.56
2019-06-10T19:06:33.837Z,93.09
2019-06-10T19:09:12.628Z,93.70
2019-06-10T19:11:47.190Z,92.84
2019-06-10T19:14:23.695Z,92.33
2019-06-10T19:16:58.923Z,92.98
2019-06-10T19:19:34.271Z,93.68
2019-06-10T19:22:09.838Z,93.94
2019-06-10T19:24:44.828Z,94.03
2019-06-10T19:27:23.156Z,94.09
2019-06-10T19:29:55.693Z,94.54
2019-06-10T19:32:34.069Z,95.64
2019-06-10T19:35:09.195Z,95.63
2019-06-10T19:37:44.599Z,95.53
2019-06-10T19:40:22.758Z,95.73
2019-06-10T19:42:57.494Z,95.84
2019-06-10T19:45:35.945Z,96.16
2019-06-10T19:48:12.281Z,96.19
2019-06-10T19:50:50.113Z,95.36
2019-06-10T19:53:22.564Z,95.56
2019-06-10T19:55:56.427Z,95.51
2019-06-10T19:58:32.152Z,94.87
2019-06-10T20:01:06.306Z,94.87
2019-06-10T20:03:44.932Z,95.19
2019-06-10T20:06:16.929Z,95.40
2019-06-10T20:08:53.931Z,95.68
2019-06-10T20:11:29.434Z,96.34
2019-06-10T20:14:04.708Z,95.90
2019-06-10T20:16:39.694Z,95.43
2019-06-10T20:19:15.115Z,96.06
2019-06-10T20:21:49.256Z,96.13
2019-06-10T20:24:24.426Z,95.36
2019-06-10T20:26:59.471Z,95.46
2019-06-10T20:29:34.235Z,96.26
2019-06-10T20:32:10.782Z,96.25
2019-06-10T20:34:44.784Z,94.95
2019-06-10T20:37:19.347Z,95.17
2019-06-10T20:39:54.736Z,95.23
2019-06-10T20:42:32.197Z,95.27
2019-06-10T20:45:06.458Z,94.60
2019-06-10T20:47:44.639Z,94.30
2019-06-10T20:50:19.014Z,94.69
2019-06-10T20:52:54.456Z,94.62
2019-06-10T20:55:40.450Z,93.93
2019-06-10T20:58:07.096Z,93.79
2019-06-10T21:00:45.633Z,94.40
2019-06-10T21:03:15.057Z,94.37
2019-06-10T21:05:53.527Z,95.28
2019-06-10T21:08:29.836Z,95.03
2019-06-10T21:11:03.505Z,94.57
2019-06-10T21:13:37.388Z,94.79
2019-06-10T21:16:12.849Z,94.29
2019-06-10T21:18:49.173Z,94.50
2019-06-10T21:21:24.247Z,94.44
2019-06-10T21:23:59.321Z,94.41
2019-06-10T21:26:35.211Z,94.48
2019-06-10T21:29:12.741Z,94.18
2019-06-10T21:31:46.980Z,94.48
2019-06-10T21:34:22.393Z,94.87
2019-06-10T21:36:56.302Z,94.30
2019-06-10T21:39:32.232Z,94.72
2019-06-10T21:42:06.055Z,94.93
2019-06-10T21:44:39.988Z,94.91
2019-06-10T21:49:54.817Z,95.64
2019-06-10T21:52:32.369Z,94.60
2019-06-10T21:55:07.707Z,93.86
2019-06-10T21:57:42.980Z,94.15
2019-06-10T22:00:17.258Z,94.83
2019-06-10T22:02:58.406Z,94.36
2019-06-10T22:05:33.031Z,93.86
2019-06-10T22:08:07.875Z,93.33
2019-06-10T22:10:44.246Z,93.90
2019-06-10T22:13:19.682Z,93.25
2019-06-10T22:15:56.892Z,92.89
2019-06-10T22:18:32.076Z,93.39
2019-06-10T22:21:04.431Z,93.30
2019-06-10T22:23:39.459Z,92.89
2019-06-10T22:26:13.855Z,93.11
2019-06-10T22:28:49.525Z,92.53
2019-06-10T22:31:26.472Z,91.08
2019-06-10T22:34:03.206Z,91.27
2019-06-10T22:36:36.022Z,91.04
2019-06-10T22:39:12.356Z,90.91
2019-06-10T22:41:46.951Z,90.91
2019-06-10T22:44:24.197Z,90.32
2019-06-10T22:47:00.109Z,90.67
2019-06-10T22:49:35.759Z,90.27
2019-06-10T22:52:12.415Z,90.22
2019-06-10T22:54:47.781Z,90.98
2019-06-10T22:57:22.175Z,89.92
2019-06-10T22:59:56.536Z,88.79
2019-06-10T23:02:33.320Z,87.33
2019-06-10T23:05:08.054Z,87.65
2019-06-10T23:07:43.379Z,88.13
2019-06-10T23:10:18.891Z,87.26
2019-06-10T23:12:57.792Z,86.57
2019-06-10T23:15:32.322Z,87.02
2019-06-10T23:18:07.441Z,87.79
2019-06-10T23:20:42.900Z,86.70
2019-06-10T23:23:23.107Z,87.09
2019-06-10T23:25:58.033Z,86.33
2019-06-10T23:28:36.316Z,84.20
2019-06-10T23:31:12.741Z,83.83
2019-06-10T23:33:48.566Z,84.52
2019-06-10T23:36:24.012Z,84.33
2019-06-10T23:38:59.084Z,83.85
2019-06-10T23:41:34.099Z,86.17
2019-06-10T23:44:09.368Z,85.89
2019-06-10T23:46:45.046Z,83.87
2019-06-10T23:49:22.667Z,80.80
2019-06-10T23:51:57.202Z,79.66
2019-06-10T23:54:32.631Z,78.08
2019-06-10T23:57:06.504Z,78.68
2019-06-10T23:59:42.742Z,79.83
